sensor_id;sensor_type;location;lat;lon;timestamp;P1;durP1;ratioP1;P2;durP2;ratioP2
10410;SDS011;5251;52.112;8.606;2024-01-30T00:02:15;10.50;;;8.30;;
10410;SDS011;5251;52.112;8.606;2024-01-30T00:04:41;9.60;;;8.43;;
10410;SDS011;5251;52.112;8.606;2024-01-30T00:07:07;10.48;;;7.50;;
10410;SDS011;5251;52.112;8.606;2024-01-30T00:09:33;10.95;;;8.13;;
10410;SDS011;5251;52.112;8.606;2024-01-30T00:11:58;11.88;;;8.73;;
10410;SDS011;5251;52.112;8.606;2024-01-30T00:14:24;10.50;;;8.70;;
10410;SDS011;5251;52.112;8.606;2024-01-30T00:16:52;11.27;;;7.93;;
10410;SDS011;5251;52.112;8.606;2024-01-30T00:19:18;13.32;;;8.25;;
10410;SDS011;5251;52.112;8.606;2024-01-30T00:21:44;10.50;;;7.93;;
10410;SDS011;5251;52.112;8.606;2024-01-30T00:24:09;10.85;;;8.65;;
10410;SDS011;5251;52.112;8.606;2024-01-30T00:26:35;11.00;;;8.43;;
10410;SDS011;5251;52.112;8.606;2024-01-30T00:29:01;12.15;;;8.27;;
10410;SDS011;5251;52.112;8.606;2024-01-30T00:31:27;10.13;;;8.00;;
10410;SDS011;5251;52.112;8.606;2024-01-30T00:33:52;9.50;;;8.10;;
10410;SDS011;5251;52.112;8.606;2024-01-30T00:36:18;9.10;;;7.95;;
10410;SDS011;5251;52.112;8.606;2024-01-30T00:38:43;10.30;;;7.97;;
10410;SDS011;5251;52.112;8.606;2024-01-30T00:41:09;10.05;;;8.48;;
10410;SDS011;5251;52.112;8.606;2024-01-30T00:43:35;10.10;;;8.35;;
10410;SDS011;5251;52.112;8.606;2024-01-30T00:46:01;9.88;;;8.27;;
10410;SDS011;5251;52.112;8.606;2024-01-30T00:48:26;11.30;;;8.48;;
10410;SDS011;5251;52.112;8.606;2024-01-30T00:50:52;11.25;;;8.55;;
10410;SDS011;5251;52.112;8.606;2024-01-30T00:53:18;11.30;;;9.07;;
10410;SDS011;5251;52.112;8.606;2024-01-30T00:55:43;11.93;;;9.18;;
10410;SDS011;5251;52.112;8.606;2024-01-30T00:58:09;10.18;;;8.93;;
10410;SDS011;5251;52.112;8.606;2024-01-30T01:00:34;10.55;;;8.45;;
10410;SDS011;5251;52.112;8.606;2024-01-30T01:03:00;10.55;;;8.60;;
10410;SDS011;5251;52.112;8.606;2024-01-30T01:05:26;11.30;;;8.80;;
10410;SDS011;5251;52.112;8.606;2024-01-30T01:07:52;11.68;;;8.68;;
10410;SDS011;5251;52.112;8.606;2024-01-30T01:10:18;11.13;;;8.55;;
10410;SDS011;5251;52.112;8.606;2024-01-30T01:12:44;10.95;;;8.50;;
10410;SDS011;5251;52.112;8.606;2024-01-30T01:15:10;10.13;;;8.10;;
10410;SDS011;5251;52.112;8.606;2024-01-30T01:17:36;12.52;;;9.10;;
10410;SDS011;5251;52.112;8.606;2024-01-30T01:20:03;11.55;;;8.85;;
10410;SDS011;5251;52.112;8.606;2024-01-30T01:22:30;11.25;;;8.77;;
10410;SDS011;5251;52.112;8.606;2024-01-30T01:24:56;12.38;;;8.82;;
10410;SDS011;5251;52.112;8.606;2024-01-30T01:27:21;11.60;;;9.25;;
10410;SDS011;5251;52.112;8.606;2024-01-30T01:29:47;11.18;;;8.75;;
10410;SDS011;5251;52.112;8.606;2024-01-30T01:32:13;10.82;;;8.48;;
10410;SDS011;5251;52.112;8.606;2024-01-30T01:34:38;10.07;;;8.70;;
10410;SDS011;5251;52.112;8.606;2024-01-30T01:37:04;11.05;;;9.20;;
10410;SDS011;5251;52.112;8.606;2024-01-30T01:39:29;11.50;;;8.95;;
10410;SDS011;5251;52.112;8.606;2024-01-30T01:41:55;10.07;;;8.30;;
10410;SDS011;5251;52.112;8.606;2024-01-30T01:44:20;11.75;;;9.35;;
10410;SDS011;5251;52.112;8.606;2024-01-30T01:46:46;12.43;;;9.27;;
10410;SDS011;5251;52.112;8.606;2024-01-30T01:49:13;10.63;;;9.00;;
10410;SDS011;5251;52.112;8.606;2024-01-30T01:51:39;11.25;;;8.90;;
10410;SDS011;5251;52.112;8.606;2024-01-30T01:54:06;10.80;;;8.30;;
10410;SDS011;5251;52.112;8.606;2024-01-30T01:56:32;11.60;;;8.80;;
10410;SDS011;5251;52.112;8.606;2024-01-30T01:59:05;9.93;;;8.65;;
10410;SDS011;5251;52.112;8.606;2024-01-30T02:01:33;12.68;;;9.43;;
10410;SDS011;5251;52.112;8.606;2024-01-30T02:04:00;11.40;;;9.15;;
10410;SDS011;5251;52.112;8.606;2024-01-30T02:06:26;10.85;;;9.32;;
10410;SDS011;5251;52.112;8.606;2024-01-30T02:08:52;10.93;;;8.40;;
10410;SDS011;5251;52.112;8.606;2024-01-30T02:11:21;11.75;;;8.70;;
10410;SDS011;5251;52.112;8.606;2024-01-30T02:13:48;12.85;;;9.02;;
10410;SDS011;5251;52.112;8.606;2024-01-30T02:16:14;12.15;;;8.77;;
10410;SDS011;5251;52.112;8.606;2024-01-30T02:18:39;12.45;;;8.95;;
10410;SDS011;5251;52.112;8.606;2024-01-30T02:21:11;10.32;;;8.43;;
10410;SDS011;5251;52.112;8.606;2024-01-30T02:23:37;12.60;;;8.82;;
10410;SDS011;5251;52.112;8.606;2024-01-30T02:26:04;11.32;;;9.32;;
10410;SDS011;5251;52.112;8.606;2024-01-30T02:28:30;11.50;;;9.00;;
10410;SDS011;5251;52.112;8.606;2024-01-30T02:30:55;13.38;;;10.02;;
10410;SDS011;5251;52.112;8.606;2024-01-30T02:33:21;14.00;;;9.73;;
10410;SDS011;5251;52.112;8.606;2024-01-30T02:35:47;12.75;;;9.75;;
10410;SDS011;5251;52.112;8.606;2024-01-30T02:38:13;12.13;;;9.25;;
10410;SDS011;5251;52.112;8.606;2024-01-30T02:40:40;12.10;;;8.95;;
10410;SDS011;5251;52.112;8.606;2024-01-30T02:43:05;12.27;;;9.05;;
10410;SDS011;5251;52.112;8.606;2024-01-30T02:45:31;12.38;;;9.18;;
10410;SDS011;5251;52.112;8.606;2024-01-30T02:47:57;12.38;;;9.13;;
10410;SDS011;5251;52.112;8.606;2024-01-30T02:50:22;12.32;;;9.43;;
10410;SDS011;5251;52.112;8.606;2024-01-30T02:52:48;11.90;;;10.20;;
10410;SDS011;5251;52.112;8.606;2024-01-30T02:55:14;11.20;;;9.20;;
10410;SDS011;5251;52.112;8.606;2024-01-30T02:57:42;12.52;;;9.80;;
10410;SDS011;5251;52.112;8.606;2024-01-30T03:00:08;11.90;;;9.75;;
10410;SDS011;5251;52.112;8.606;2024-01-30T03:02:34;12.20;;;9.55;;
10410;SDS011;5251;52.112;8.606;2024-01-30T03:05:00;11.38;;;9.43;;
10410;SDS011;5251;52.112;8.606;2024-01-30T03:07:26;12.05;;;9.75;;
10410;SDS011;5251;52.112;8.606;2024-01-30T03:09:52;13.05;;;9.90;;
10410;SDS011;5251;52.112;8.606;2024-01-30T03:12:17;12.07;;;9.48;;
10410;SDS011;5251;52.112;8.606;2024-01-30T03:14:43;12.98;;;9.90;;
10410;SDS011;5251;52.112;8.606;2024-01-30T03:17:09;13.30;;;9.77;;
10410;SDS011;5251;52.112;8.606;2024-01-30T03:19:34;12.82;;;9.27;;
10410;SDS011;5251;52.112;8.606;2024-01-30T03:22:00;12.63;;;9.00;;
10410;SDS011;5251;52.112;8.606;2024-01-30T03:24:25;12.18;;;10.07;;
10410;SDS011;5251;52.112;8.606;2024-01-30T03:26:51;13.30;;;9.75;;
10410;SDS011;5251;52.112;8.606;2024-01-30T03:29:17;10.68;;;8.93;;
10410;SDS011;5251;52.112;8.606;2024-01-30T03:31:42;12.55;;;9.63;;
10410;SDS011;5251;52.112;8.606;2024-01-30T03:34:08;12.40;;;9.20;;
10410;SDS011;5251;52.112;8.606;2024-01-30T03:36:33;12.07;;;9.75;;
10410;SDS011;5251;52.112;8.606;2024-01-30T03:38:59;14.25;;;10.65;;
10410;SDS011;5251;52.112;8.606;2024-01-30T03:41:25;14.77;;;10.25;;
10410;SDS011;5251;52.112;8.606;2024-01-30T03:43:51;12.20;;;9.43;;
10410;SDS011;5251;52.112;8.606;2024-01-30T03:46:17;11.95;;;9.45;;
10410;SDS011;5251;52.112;8.606;2024-01-30T03:48:42;12.23;;;9.38;;
10410;SDS011;5251;52.112;8.606;2024-01-30T03:51:08;12.82;;;10.15;;
10410;SDS011;5251;52.112;8.606;2024-01-30T03:53:39;13.40;;;10.00;;
10410;SDS011;5251;52.112;8.606;2024-01-30T03:56:05;15.02;;;10.35;;
10410;SDS011;5251;52.112;8.606;2024-01-30T03:58:31;12.68;;;10.32;;
10410;SDS011;5251;52.112;8.606;2024-01-30T04:00:56;11.48;;;9.75;;
10410;SDS011;5251;52.112;8.606;2024-01-30T04:03:22;11.50;;;10.05;;
10410;SDS011;5251;52.112;8.606;2024-01-30T04:05:48;13.40;;;10.02;;
10410;SDS011;5251;52.112;8.606;2024-01-30T04:08:13;13.18;;;10.35;;
10410;SDS011;5251;52.112;8.606;2024-01-30T04:10:39;11.95;;;9.93;;
10410;SDS011;5251;52.112;8.606;2024-01-30T04:13:04;13.10;;;10.30;;
10410;SDS011;5251;52.112;8.606;2024-01-30T04:15:30;14.00;;;10.27;;
10410;SDS011;5251;52.112;8.606;2024-01-30T04:17:59;12.45;;;9.95;;
10410;SDS011;5251;52.112;8.606;2024-01-30T04:20:24;11.75;;;9.27;;
10410;SDS011;5251;52.112;8.606;2024-01-30T04:22:50;13.65;;;10.25;;
10410;SDS011;5251;52.112;8.606;2024-01-30T04:25:16;12.85;;;9.75;;
10410;SDS011;5251;52.112;8.606;2024-01-30T04:27:42;14.63;;;10.43;;
10410;SDS011;5251;52.112;8.606;2024-01-30T04:30:07;13.35;;;9.95;;
10410;SDS011;5251;52.112;8.606;2024-01-30T04:32:34;12.45;;;9.43;;
10410;SDS011;5251;52.112;8.606;2024-01-30T04:35:00;17.13;;;9.95;;
10410;SDS011;5251;52.112;8.606;2024-01-30T04:37:26;13.23;;;9.52;;
10410;SDS011;5251;52.112;8.606;2024-01-30T04:39:51;13.65;;;10.27;;
10410;SDS011;5251;52.112;8.606;2024-01-30T04:42:17;12.27;;;9.55;;
10410;SDS011;5251;52.112;8.606;2024-01-30T04:44:42;12.48;;;9.40;;
10410;SDS011;5251;52.112;8.606;2024-01-30T04:47:08;12.40;;;9.80;;
10410;SDS011;5251;52.112;8.606;2024-01-30T04:49:36;11.82;;;9.88;;
10410;SDS011;5251;52.112;8.606;2024-01-30T04:52:01;13.15;;;9.43;;
10410;SDS011;5251;52.112;8.606;2024-01-30T04:54:27;12.35;;;9.45;;
10410;SDS011;5251;52.112;8.606;2024-01-30T04:56:53;12.95;;;9.55;;
10410;SDS011;5251;52.112;8.606;2024-01-30T04:59:18;12.65;;;9.77;;
10410;SDS011;5251;52.112;8.606;2024-01-30T05:01:44;13.40;;;9.85;;
10410;SDS011;5251;52.112;8.606;2024-01-30T05:04:09;13.20;;;9.88;;
10410;SDS011;5251;52.112;8.606;2024-01-30T05:06:36;13.30;;;9.65;;
10410;SDS011;5251;52.112;8.606;2024-01-30T05:09:02;11.80;;;9.30;;
10410;SDS011;5251;52.112;8.606;2024-01-30T05:11:29;12.90;;;10.57;;
10410;SDS011;5251;52.112;8.606;2024-01-30T05:13:55;14.13;;;9.82;;
10410;SDS011;5251;52.112;8.606;2024-01-30T05:16:20;13.25;;;10.32;;
10410;SDS011;5251;52.112;8.606;2024-01-30T05:18:46;12.85;;;10.35;;
10410;SDS011;5251;52.112;8.606;2024-01-30T05:21:12;13.55;;;10.88;;
10410;SDS011;5251;52.112;8.606;2024-01-30T05:23:37;12.70;;;10.20;;
10410;SDS011;5251;52.112;8.606;2024-01-30T05:26:03;17.60;;;10.40;;
10410;SDS011;5251;52.112;8.606;2024-01-30T05:28:29;14.68;;;11.05;;
10410;SDS011;5251;52.112;8.606;2024-01-30T05:30:55;11.65;;;10.10;;
10410;SDS011;5251;52.112;8.606;2024-01-30T05:33:21;16.35;;;11.00;;
10410;SDS011;5251;52.112;8.606;2024-01-30T05:35:47;14.68;;;10.60;;
10410;SDS011;5251;52.112;8.606;2024-01-30T05:38:13;13.93;;;10.25;;
10410;SDS011;5251;52.112;8.606;2024-01-30T05:40:40;12.15;;;10.27;;
10410;SDS011;5251;52.112;8.606;2024-01-30T05:43:06;13.13;;;9.90;;
10410;SDS011;5251;52.112;8.606;2024-01-30T05:45:32;13.10;;;10.07;;
10410;SDS011;5251;52.112;8.606;2024-01-30T05:48:00;15.40;;;10.85;;
10410;SDS011;5251;52.112;8.606;2024-01-30T05:50:26;13.18;;;10.52;;
10410;SDS011;5251;52.112;8.606;2024-01-30T05:52:52;12.70;;;9.80;;
10410;SDS011;5251;52.112;8.606;2024-01-30T05:55:18;11.23;;;10.02;;
10410;SDS011;5251;52.112;8.606;2024-01-30T05:57:43;13.60;;;9.98;;
10410;SDS011;5251;52.112;8.606;2024-01-30T06:00:09;15.07;;;10.80;;
10410;SDS011;5251;52.112;8.606;2024-01-30T06:02:35;12.75;;;9.85;;
10410;SDS011;5251;52.112;8.606;2024-01-30T06:05:01;11.43;;;9.20;;
10410;SDS011;5251;52.112;8.606;2024-01-30T06:07:26;11.95;;;9.73;;
10410;SDS011;5251;52.112;8.606;2024-01-30T06:09:52;12.63;;;9.52;;
10410;SDS011;5251;52.112;8.606;2024-01-30T06:12:17;12.15;;;9.35;;
10410;SDS011;5251;52.112;8.606;2024-01-30T06:14:43;12.48;;;9.98;;
10410;SDS011;5251;52.112;8.606;2024-01-30T06:17:09;12.05;;;9.75;;
10410;SDS011;5251;52.112;8.606;2024-01-30T06:19:34;13.82;;;9.80;;
10410;SDS011;5251;52.112;8.606;2024-01-30T06:22:00;13.23;;;9.50;;
10410;SDS011;5251;52.112;8.606;2024-01-30T06:24:26;12.70;;;9.57;;
10410;SDS011;5251;52.112;8.606;2024-01-30T06:26:52;11.40;;;9.80;;
10410;SDS011;5251;52.112;8.606;2024-01-30T06:29:18;13.57;;;10.23;;
10410;SDS011;5251;52.112;8.606;2024-01-30T06:31:44;12.48;;;9.70;;
10410;SDS011;5251;52.112;8.606;2024-01-30T06:34:09;12.85;;;10.15;;
10410;SDS011;5251;52.112;8.606;2024-01-30T06:36:37;10.68;;;9.20;;
10410;SDS011;5251;52.112;8.606;2024-01-30T06:39:02;11.23;;;9.07;;
10410;SDS011;5251;52.112;8.606;2024-01-30T06:41:29;12.85;;;9.45;;
10410;SDS011;5251;52.112;8.606;2024-01-30T06:43:55;12.48;;;9.75;;
10410;SDS011;5251;52.112;8.606;2024-01-30T06:46:21;12.13;;;9.88;;
10410;SDS011;5251;52.112;8.606;2024-01-30T06:48:46;12.75;;;10.15;;
10410;SDS011;5251;52.112;8.606;2024-01-30T06:51:12;13.23;;;9.77;;
10410;SDS011;5251;52.112;8.606;2024-01-30T06:53:38;12.55;;;9.88;;
10410;SDS011;5251;52.112;8.606;2024-01-30T06:56:04;11.85;;;9.13;;
10410;SDS011;5251;52.112;8.606;2024-01-30T06:58:30;13.95;;;10.20;;
10410;SDS011;5251;52.112;8.606;2024-01-30T07:00:55;14.65;;;10.07;;
10410;SDS011;5251;52.112;8.606;2024-01-30T07:03:21;12.48;;;9.93;;
10410;SDS011;5251;52.112;8.606;2024-01-30T07:05:47;12.63;;;9.45;;
10410;SDS011;5251;52.112;8.606;2024-01-30T07:08:13;12.70;;;9.45;;
10410;SDS011;5251;52.112;8.606;2024-01-30T07:10:42;13.60;;;9.60;;
10410;SDS011;5251;52.112;8.606;2024-01-30T07:13:08;12.93;;;10.07;;
10410;SDS011;5251;52.112;8.606;2024-01-30T07:15:35;13.50;;;9.82;;
10410;SDS011;5251;52.112;8.606;2024-01-30T07:18:01;15.55;;;10.10;;
10410;SDS011;5251;52.112;8.606;2024-01-30T07:20:27;14.93;;;10.40;;
10410;SDS011;5251;52.112;8.606;2024-01-30T07:22:55;12.68;;;9.55;;
10410;SDS011;5251;52.112;8.606;2024-01-30T07:25:21;13.23;;;9.90;;
10410;SDS011;5251;52.112;8.606;2024-01-30T07:27:46;12.75;;;10.20;;
10410;SDS011;5251;52.112;8.606;2024-01-30T07:30:12;14.20;;;10.35;;
10410;SDS011;5251;52.112;8.606;2024-01-30T07:32:38;13.95;;;10.77;;
10410;SDS011;5251;52.112;8.606;2024-01-30T07:35:03;12.82;;;10.05;;
10410;SDS011;5251;52.112;8.606;2024-01-30T07:37:29;14.52;;;10.82;;
10410;SDS011;5251;52.112;8.606;2024-01-30T07:39:55;15.55;;;10.75;;
10410;SDS011;5251;52.112;8.606;2024-01-30T07:42:20;13.63;;;10.55;;
10410;SDS011;5251;52.112;8.606;2024-01-30T07:44:46;15.57;;;10.73;;
10410;SDS011;5251;52.112;8.606;2024-01-30T07:47:11;14.90;;;10.82;;
10410;SDS011;5251;52.112;8.606;2024-01-30T07:49:37;15.43;;;11.25;;
10410;SDS011;5251;52.112;8.606;2024-01-30T07:52:03;13.30;;;10.73;;
10410;SDS011;5251;52.112;8.606;2024-01-30T07:54:32;15.05;;;10.10;;
10410;SDS011;5251;52.112;8.606;2024-01-30T07:56:58;13.50;;;10.98;;
10410;SDS011;5251;52.112;8.606;2024-01-30T07:59:25;13.50;;;10.93;;
10410;SDS011;5251;52.112;8.606;2024-01-30T08:01:51;13.30;;;10.65;;
10410;SDS011;5251;52.112;8.606;2024-01-30T08:04:16;13.73;;;10.35;;
10410;SDS011;5251;52.112;8.606;2024-01-30T08:06:42;13.68;;;10.35;;
10410;SDS011;5251;52.112;8.606;2024-01-30T08:09:08;14.00;;;10.15;;
10410;SDS011;5251;52.112;8.606;2024-01-30T08:11:33;12.95;;;10.02;;
10410;SDS011;5251;52.112;8.606;2024-01-30T08:13:59;11.10;;;9.85;;
10410;SDS011;5251;52.112;8.606;2024-01-30T08:16:25;14.02;;;10.35;;
10410;SDS011;5251;52.112;8.606;2024-01-30T08:18:50;14.68;;;10.60;;
10410;SDS011;5251;52.112;8.606;2024-01-30T08:21:18;16.60;;;10.27;;
10410;SDS011;5251;52.112;8.606;2024-01-30T08:23:43;13.48;;;10.68;;
10410;SDS011;5251;52.112;8.606;2024-01-30T08:26:09;14.50;;;11.00;;
10410;SDS011;5251;52.112;8.606;2024-01-30T08:28:35;14.23;;;10.85;;
10410;SDS011;5251;52.112;8.606;2024-01-30T08:31:00;12.23;;;10.05;;
10410;SDS011;5251;52.112;8.606;2024-01-30T08:33:26;11.93;;;9.57;;
10410;SDS011;5251;52.112;8.606;2024-01-30T08:35:51;13.57;;;10.80;;
10410;SDS011;5251;52.112;8.606;2024-01-30T08:38:17;13.55;;;10.27;;
10410;SDS011;5251;52.112;8.606;2024-01-30T08:40:43;14.65;;;10.55;;
10410;SDS011;5251;52.112;8.606;2024-01-30T08:43:09;12.90;;;10.30;;
10410;SDS011;5251;52.112;8.606;2024-01-30T08:45:35;12.55;;;9.95;;
10410;SDS011;5251;52.112;8.606;2024-01-30T08:48:00;12.93;;;10.10;;
10410;SDS011;5251;52.112;8.606;2024-01-30T08:50:26;12.25;;;9.93;;
10410;SDS011;5251;52.112;8.606;2024-01-30T08:52:52;14.45;;;10.45;;
10410;SDS011;5251;52.112;8.606;2024-01-30T08:55:17;12.05;;;10.40;;
10410;SDS011;5251;52.112;8.606;2024-01-30T08:57:43;12.20;;;9.90;;
10410;SDS011;5251;52.112;8.606;2024-01-30T09:00:09;11.18;;;9.98;;
10410;SDS011;5251;52.112;8.606;2024-01-30T09:02:35;12.73;;;10.00;;
10410;SDS011;5251;52.112;8.606;2024-01-30T09:05:00;14.68;;;11.20;;
10410;SDS011;5251;52.112;8.606;2024-01-30T09:07:26;11.57;;;9.95;;
10410;SDS011;5251;52.112;8.606;2024-01-30T09:09:52;12.80;;;10.00;;
10410;SDS011;5251;52.112;8.606;2024-01-30T09:12:17;12.88;;;9.93;;
10410;SDS011;5251;52.112;8.606;2024-01-30T09:14:43;13.15;;;10.43;;
10410;SDS011;5251;52.112;8.606;2024-01-30T09:17:09;11.50;;;10.05;;
10410;SDS011;5251;52.112;8.606;2024-01-30T09:19:34;11.93;;;9.98;;
10410;SDS011;5251;52.112;8.606;2024-01-30T09:22:00;12.50;;;10.30;;
10410;SDS011;5251;52.112;8.606;2024-01-30T09:24:26;13.05;;;9.63;;
10410;SDS011;5251;52.112;8.606;2024-01-30T09:26:52;12.55;;;10.05;;
10410;SDS011;5251;52.112;8.606;2024-01-30T09:29:18;17.95;;;9.75;;
10410;SDS011;5251;52.112;8.606;2024-01-30T09:31:44;12.93;;;9.68;;
10410;SDS011;5251;52.112;8.606;2024-01-30T09:34:10;11.43;;;9.10;;
10410;SDS011;5251;52.112;8.606;2024-01-30T09:36:35;10.70;;;9.40;;
10410;SDS011;5251;52.112;8.606;2024-01-30T09:39:01;11.43;;;8.73;;
10410;SDS011;5251;52.112;8.606;2024-01-30T09:41:28;10.85;;;9.68;;
10410;SDS011;5251;52.112;8.606;2024-01-30T09:43:57;12.77;;;9.07;;
10410;SDS011;5251;52.112;8.606;2024-01-30T09:46:23;13.05;;;10.02;;
10410;SDS011;5251;52.112;8.606;2024-01-30T09:48:53;8.45;;;7.32;;
10410;SDS011;5251;52.112;8.606;2024-01-30T09:51:20;9.45;;;8.45;;
10410;SDS011;5251;52.112;8.606;2024-01-30T09:53:47;12.43;;;8.93;;
10410;SDS011;5251;52.112;8.606;2024-01-30T09:56:13;9.82;;;8.82;;
10410;SDS011;5251;52.112;8.606;2024-01-30T09:58:39;11.68;;;9.75;;
10410;SDS011;5251;52.112;8.606;2024-01-30T10:01:05;11.88;;;9.52;;
10410;SDS011;5251;52.112;8.606;2024-01-30T10:03:31;11.15;;;8.98;;
10410;SDS011;5251;52.112;8.606;2024-01-30T10:05:56;12.35;;;9.35;;
10410;SDS011;5251;52.112;8.606;2024-01-30T10:08:23;9.95;;;8.93;;
10410;SDS011;5251;52.112;8.606;2024-01-30T10:10:49;10.00;;;7.63;;
10410;SDS011;5251;52.112;8.606;2024-01-30T10:13:15;7.78;;;6.82;;
10410;SDS011;5251;52.112;8.606;2024-01-30T10:15:44;8.75;;;6.13;;
10410;SDS011;5251;52.112;8.606;2024-01-30T10:18:12;5.88;;;5.05;;
10410;SDS011;5251;52.112;8.606;2024-01-30T10:20:38;6.55;;;4.88;;
10410;SDS011;5251;52.112;8.606;2024-01-30T10:23:04;6.85;;;5.40;;
10410;SDS011;5251;52.112;8.606;2024-01-30T10:25:32;6.80;;;5.07;;
10410;SDS011;5251;52.112;8.606;2024-01-30T10:28:00;6.30;;;4.72;;
10410;SDS011;5251;52.112;8.606;2024-01-30T10:30:26;7.57;;;5.10;;
10410;SDS011;5251;52.112;8.606;2024-01-30T10:32:52;5.97;;;4.50;;
10410;SDS011;5251;52.112;8.606;2024-01-30T10:35:18;5.75;;;4.82;;
10410;SDS011;5251;52.112;8.606;2024-01-30T10:37:44;5.18;;;4.05;;
10410;SDS011;5251;52.112;8.606;2024-01-30T10:40:13;5.20;;;4.30;;
10410;SDS011;5251;52.112;8.606;2024-01-30T10:42:41;4.53;;;3.88;;
10410;SDS011;5251;52.112;8.606;2024-01-30T10:45:08;5.18;;;4.10;;
10410;SDS011;5251;52.112;8.606;2024-01-30T10:47:43;5.13;;;4.18;;
10410;SDS011;5251;52.112;8.606;2024-01-30T10:50:13;4.88;;;3.72;;
10410;SDS011;5251;52.112;8.606;2024-01-30T10:52:40;5.68;;;4.03;;
10410;SDS011;5251;52.112;8.606;2024-01-30T10:55:07;5.18;;;4.00;;
10410;SDS011;5251;52.112;8.606;2024-01-30T10:57:36;7.95;;;4.32;;
10410;SDS011;5251;52.112;8.606;2024-01-30T11:00:04;6.18;;;4.35;;
10410;SDS011;5251;52.112;8.606;2024-01-30T11:02:36;4.82;;;4.22;;
10410;SDS011;5251;52.112;8.606;2024-01-30T11:05:07;5.45;;;4.22;;
10410;SDS011;5251;52.112;8.606;2024-01-30T11:07:33;4.30;;;3.85;;
10410;SDS011;5251;52.112;8.606;2024-01-30T11:12:26;5.93;;;4.05;;
10410;SDS011;5251;52.112;8.606;2024-01-30T11:15:11;4.90;;;3.92;;
10410;SDS011;5251;52.112;8.606;2024-01-30T11:20:22;5.20;;;4.28;;
10410;SDS011;5251;52.112;8.606;2024-01-30T11:22:51;6.22;;;4.28;;
10410;SDS011;5251;52.112;8.606;2024-01-30T11:25:21;7.22;;;3.85;;
10410;SDS011;5251;52.112;8.606;2024-01-30T11:27:54;7.10;;;4.45;;
10410;SDS011;5251;52.112;8.606;2024-01-30T11:30:21;6.38;;;4.50;;
10410;SDS011;5251;52.112;8.606;2024-01-30T11:32:57;6.03;;;4.47;;
10410;SDS011;5251;52.112;8.606;2024-01-30T11:35:24;5.63;;;4.22;;
10410;SDS011;5251;52.112;8.606;2024-01-30T11:37:50;8.25;;;4.10;;
10410;SDS011;5251;52.112;8.606;2024-01-30T11:40:16;5.30;;;3.60;;
10410;SDS011;5251;52.112;8.606;2024-01-30T11:42:41;5.57;;;4.03;;
10410;SDS011;5251;52.112;8.606;2024-01-30T11:45:08;5.20;;;4.30;;
10410;SDS011;5251;52.112;8.606;2024-01-30T11:47:35;6.72;;;4.25;;
10410;SDS011;5251;52.112;8.606;2024-01-30T11:50:03;7.85;;;4.63;;
10410;SDS011;5251;52.112;8.606;2024-01-30T11:52:31;5.90;;;4.30;;
10410;SDS011;5251;52.112;8.606;2024-01-30T11:54:58;5.05;;;3.70;;
10410;SDS011;5251;52.112;8.606;2024-01-30T11:57:24;4.90;;;3.97;;
10410;SDS011;5251;52.112;8.606;2024-01-30T11:59:51;5.60;;;4.40;;
10410;SDS011;5251;52.112;8.606;2024-01-30T12:02:16;5.63;;;4.00;;
10410;SDS011;5251;52.112;8.606;2024-01-30T12:04:42;5.35;;;3.65;;
10410;SDS011;5251;52.112;8.606;2024-01-30T12:07:08;3.90;;;3.50;;
10410;SDS011;5251;52.112;8.606;2024-01-30T12:09:33;6.30;;;4.43;;
10410;SDS011;5251;52.112;8.606;2024-01-30T12:11:59;6.18;;;4.38;;
10410;SDS011;5251;52.112;8.606;2024-01-30T12:14:25;5.60;;;4.10;;
10410;SDS011;5251;52.112;8.606;2024-01-30T12:16:51;5.80;;;4.00;;
10410;SDS011;5251;52.112;8.606;2024-01-30T12:19:23;5.25;;;4.25;;
10410;SDS011;5251;52.112;8.606;2024-01-30T12:21:56;6.03;;;4.38;;
10410;SDS011;5251;52.112;8.606;2024-01-30T12:24:24;6.38;;;4.22;;
10410;SDS011;5251;52.112;8.606;2024-01-30T12:26:58;7.55;;;4.95;;
10410;SDS011;5251;52.112;8.606;2024-01-30T12:29:25;8.57;;;4.85;;
10410;SDS011;5251;52.112;8.606;2024-01-30T12:31:54;6.10;;;4.20;;
10410;SDS011;5251;52.112;8.606;2024-01-30T12:34:20;7.25;;;4.70;;
10410;SDS011;5251;52.112;8.606;2024-01-30T12:36:49;6.15;;;4.45;;
10410;SDS011;5251;52.112;8.606;2024-01-30T12:39:15;5.53;;;4.35;;
10410;SDS011;5251;52.112;8.606;2024-01-30T12:41:41;5.75;;;4.65;;
10410;SDS011;5251;52.112;8.606;2024-01-30T12:44:07;7.38;;;5.05;;
10410;SDS011;5251;52.112;8.606;2024-01-30T12:46:36;9.43;;;4.90;;
10410;SDS011;5251;52.112;8.606;2024-01-30T12:49:02;7.97;;;5.07;;
10410;SDS011;5251;52.112;8.606;2024-01-30T12:51:27;11.10;;;5.00;;
10410;SDS011;5251;52.112;8.606;2024-01-30T12:53:53;7.07;;;4.70;;
10410;SDS011;5251;52.112;8.606;2024-01-30T12:56:19;7.10;;;4.93;;
10410;SDS011;5251;52.112;8.606;2024-01-30T12:58:45;6.85;;;4.63;;
10410;SDS011;5251;52.112;8.606;2024-01-30T13:01:11;5.22;;;4.30;;
10410;SDS011;5251;52.112;8.606;2024-01-30T13:03:37;6.00;;;4.45;;
10410;SDS011;5251;52.112;8.606;2024-01-30T13:06:03;5.95;;;4.70;;
10410;SDS011;5251;52.112;8.606;2024-01-30T13:08:28;6.15;;;4.10;;
10410;SDS011;5251;52.112;8.606;2024-01-30T13:10:54;5.13;;;4.32;;
10410;SDS011;5251;52.112;8.606;2024-01-30T13:13:20;7.55;;;4.63;;
10410;SDS011;5251;52.112;8.606;2024-01-30T13:15:45;7.07;;;4.70;;
10410;SDS011;5251;52.112;8.606;2024-01-30T13:18:11;6.05;;;4.45;;
10410;SDS011;5251;52.112;8.606;2024-01-30T13:20:37;6.70;;;4.55;;
10410;SDS011;5251;52.112;8.606;2024-01-30T13:23:02;5.65;;;4.50;;
10410;SDS011;5251;52.112;8.606;2024-01-30T13:25:28;6.25;;;4.82;;
10410;SDS011;5251;52.112;8.606;2024-01-30T13:27:54;8.73;;;4.88;;
10410;SDS011;5251;52.112;8.606;2024-01-30T13:30:19;6.85;;;4.72;;
10410;SDS011;5251;52.112;8.606;2024-01-30T13:32:45;7.82;;;4.85;;
10410;SDS011;5251;52.112;8.606;2024-01-30T13:35:11;9.88;;;5.03;;
10410;SDS011;5251;52.112;8.606;2024-01-30T13:37:36;8.10;;;5.43;;
10410;SDS011;5251;52.112;8.606;2024-01-30T13:40:03;7.60;;;5.30;;
10410;SDS011;5251;52.112;8.606;2024-01-30T13:42:37;5.88;;;5.10;;
10410;SDS011;5251;52.112;8.606;2024-01-30T13:45:04;7.97;;;5.38;;
10410;SDS011;5251;52.112;8.606;2024-01-30T13:47:29;6.68;;;5.47;;
10410;SDS011;5251;52.112;8.606;2024-01-30T13:49:55;8.02;;;5.35;;
10410;SDS011;5251;52.112;8.606;2024-01-30T13:52:21;7.95;;;5.97;;
10410;SDS011;5251;52.112;8.606;2024-01-30T13:54:46;8.00;;;5.10;;
10410;SDS011;5251;52.112;8.606;2024-01-30T13:57:12;9.27;;;5.88;;
10410;SDS011;5251;52.112;8.606;2024-01-30T13:59:38;8.90;;;5.50;;
10410;SDS011;5251;52.112;8.606;2024-01-30T14:02:03;7.75;;;5.70;;
10410;SDS011;5251;52.112;8.606;2024-01-30T14:04:30;7.30;;;5.82;;
10410;SDS011;5251;52.112;8.606;2024-01-30T14:06:56;8.68;;;6.00;;
10410;SDS011;5251;52.112;8.606;2024-01-30T14:09:21;7.50;;;5.43;;
10410;SDS011;5251;52.112;8.606;2024-01-30T14:11:47;7.88;;;5.25;;
10410;SDS011;5251;52.112;8.606;2024-01-30T14:14:13;9.38;;;5.85;;
10410;SDS011;5251;52.112;8.606;2024-01-30T14:16:38;8.63;;;5.50;;
10410;SDS011;5251;52.112;8.606;2024-01-30T14:19:04;9.30;;;5.38;;
10410;SDS011;5251;52.112;8.606;2024-01-30T14:21:30;8.38;;;5.70;;
10410;SDS011;5251;52.112;8.606;2024-01-30T14:23:55;6.47;;;4.80;;
10410;SDS011;5251;52.112;8.606;2024-01-30T14:26:21;5.85;;;4.90;;
10410;SDS011;5251;52.112;8.606;2024-01-30T14:28:46;10.23;;;6.53;;
10410;SDS011;5251;52.112;8.606;2024-01-30T14:31:12;8.85;;;5.68;;
10410;SDS011;5251;52.112;8.606;2024-01-30T14:33:38;7.03;;;5.38;;
10410;SDS011;5251;52.112;8.606;2024-01-30T14:36:04;7.85;;;5.47;;
10410;SDS011;5251;52.112;8.606;2024-01-30T14:38:30;6.90;;;5.68;;
10410;SDS011;5251;52.112;8.606;2024-01-30T14:40:56;9.18;;;5.63;;
10410;SDS011;5251;52.112;8.606;2024-01-30T14:43:21;7.45;;;6.05;;
10410;SDS011;5251;52.112;8.606;2024-01-30T14:45:47;10.48;;;6.10;;
10410;SDS011;5251;52.112;8.606;2024-01-30T14:48:14;8.02;;;5.38;;